Historyczne dane pomiarowe

Dodano dane terminowe – wersja testowa.

Dane z okresu 1951-2019

Wersja bazy: 1.34 [2019-03-16, lista zmian], aktualizacja planowana na 2019-04-15

Dane meteo z obszaru Polski uzyskane na podstawie danych udostępnionych przez Instytut Meteorologii i Gospodarki Wodnej – Państwowy Instytut Badawczy.

 

Wybierz Datę:    

       

TemperaturaWilgotnośćWiatrCiśnienieOpadyŚniegCzas trwania zjawisk
 Stacja t tx tn tng RH VA  wxwx mslp ppp RRR   cm mm wxwxwxwxwxwxwx
1994-10-10 0.4 4.8 -3.4- 91.5- 3.3 3.7---- 0.0-- 8---------
1994-10-09 -1.1 2.0 -2.5- 96.8- 7.3 4.3---- 6.2-- 1---------
1994-10-08 1.9 4.9 -0.7- 94.3- 2.7 3.0---- 0.3-- 2---------
1994-10-07 -0.9 0.9 -2.6- 99.0- 8.0 7.3---- 0.9-- 4---------
1994-10-06 0.1 2.7 -1.8- 89.8- 4.7 4.0---- 1.6-- 1---------
1994-10-05 2.8 5.8 -1.4- 78.5- 5.0 4.3---- 2.2------------
1994-10-04 3.5 11.2 -0.5- 99.5- 6.7 3.0---- 2.3------------
1994-10-03 12.3 15.2 8.9- 98.0- 4.7 4.3---- 31.2------------
1994-10-02 9.2 13.1 6.2- 97.8- 5.7 4.7---- 1.2------------
1994-10-01 13.2 17.7 9.7- 90.0- 3.0 7.3---- 0.0------------
1994-08-31 13.0 16.7 10.0- 87.0- 3.3 4.7---- 5.2------------
1994-08-30 11.6 16.0 8.2- 63.5- 1.0 5.3---- 0.8------------
1994-08-29 11.2 15.4 8.4- 87.3- 5.7 4.3---- 0.0------------
1994-08-28 16.6 21.9 12.0- 75.3- 0.7 4.3---- 1.8------------
1994-08-27 10.3 16.5 3.8- 91.8- 3.3 4.7---- 0.0------------
1994-08-26 7.5 12.9 3.6-100.0- 8.0 4.0---- 20.5------------
1994-08-25 15.2 19.0 12.6- 95.5- 6.0 6.0---- 1.8------------
1994-08-24 16.9 20.7 14.8- 79.3- 0.0 3.7---- 0.0------------
1994-08-23 16.8 20.9 13.8- 71.3- 1.3 3.3---- 0.0------------
1994-08-22 16.6 19.3 13.7- 70.0- 1.3 4.3---- 0.0------------
1994-08-21 14.0 19.0 8.8- 74.0- 1.0 4.7---- 0.1------------
1994-08-20 7.4 13.9 3.7- 92.0- 6.0 4.7---- 3.4------------
1994-08-19 6.3 9.1 4.4- 99.8- 5.7 6.7---- 10.4------------
1994-08-18 8.8 18.1 4.5- 91.8- 7.3 7.3---- 21.4------------
1994-08-17 16.2 21.7 8.6- 69.8- 0.7 4.7---- 3.4------------
1994-08-16 8.9 16.3 4.6- 92.5- 1.0 4.3---- 0.0------------
1994-08-15 11.2 16.1 6.2- 75.8- 5.7 5.7---- 4.2------------
1994-08-14 10.9 16.2 7.5- 78.8- 1.0 4.0---- 0.0------------
1994-08-13 11.5 17.7 7.8- 91.8- 6.0 3.7---- 0.2------------
1994-08-12 10.7 15.4 9.4- 99.8- 8.0 5.3---- 14.9------------
670.7 ms

 

Źródłem pochodzenia danych jest Instytut Meteorologii i Gospodarki Wodnej – Państwowy Instytut Badawczy. Dane Instytutu Meteorologii i Gospodarki Wodnej – Państwowego Instytutu Badawczego zostały przetworzone.

Dane źródłowe można odnaleźć na stronie https://dane.imgw.pl